createdAt,value
2022-11-20T00:00:54.536Z,-1.75
2022-11-20T00:03:22.545Z,-1.71
2022-11-20T00:05:50.216Z,-1.60
2022-11-20T00:08:18.834Z,-1.53
2022-11-20T00:10:46.495Z,-1.72
2022-11-20T00:13:14.218Z,-1.85
2022-11-20T00:15:41.920Z,-1.92
2022-11-20T00:18:10.778Z,-1.98
2022-11-20T00:20:38.447Z,-1.99
2022-11-20T00:23:06.884Z,-2.01
2022-11-20T00:25:35.928Z,-2.05
2022-11-20T00:28:03.631Z,-2.12
2022-11-20T00:30:31.305Z,-2.07
2022-11-20T00:32:59.057Z,-2.06
2022-11-20T00:35:28.137Z,-2.03
2022-11-20T00:37:55.812Z,-2.01
2022-11-20T00:40:23.513Z,-1.88
2022-11-20T00:42:51.144Z,-1.93
2022-11-20T00:45:18.861Z,-1.81
2022-11-20T00:47:46.507Z,-1.80
2022-11-20T00:50:14.193Z,-1.82
2022-11-20T00:52:43.493Z,-1.92
2022-11-20T00:55:11.141Z,-1.93
2022-11-20T00:57:38.814Z,-1.89
2022-11-20T01:00:08.075Z,-1.88
2022-11-20T01:02:35.804Z,-1.71
2022-11-20T01:05:03.537Z,-1.86
2022-11-20T01:07:31.226Z,-1.92
2022-11-20T01:10:00.335Z,-1.97
2022-11-20T01:12:28.067Z,-2.16
2022-11-20T01:14:55.725Z,-2.26
2022-11-20T01:17:23.464Z,-2.36
2022-11-20T01:19:51.676Z,-2.21
2022-11-20T01:22:19.343Z,-2.04
2022-11-20T01:24:46.994Z,-2.08
2022-11-20T01:27:16.073Z,-2.29
2022-11-20T01:29:43.786Z,-2.27
2022-11-20T01:32:11.475Z,-2.00
2022-11-20T01:34:39.209Z,-2.07
2022-11-20T01:37:06.909Z,-1.99
2022-11-20T01:39:34.583Z,-1.96
2022-11-20T01:42:19.908Z,-2.04
2022-11-20T01:44:54.892Z,-2.14
2022-11-20T01:47:26.400Z,-2.14
2022-11-20T01:49:58.153Z,-2.39
2022-11-20T01:52:30.767Z,-2.56
2022-11-20T01:55:01.301Z,-2.66
2022-11-20T01:57:30.553Z,-2.60
2022-11-20T02:00:07.258Z,-2.29
2022-11-20T02:02:35.156Z,-2.37
2022-11-20T02:05:05.670Z,-2.43
2022-11-20T02:07:33.724Z,-2.58
2022-11-20T02:10:01.441Z,-2.73
2022-11-20T02:12:47.112Z,-2.82
2022-11-20T02:15:16.355Z,-2.83
2022-11-20T02:17:44.011Z,-2.62
2022-11-20T02:20:12.549Z,-2.26
2022-11-20T02:22:46.475Z,-2.32
2022-11-20T02:25:16.385Z,-2.60
2022-11-20T02:27:44.055Z,-2.40
2022-11-20T02:30:12.973Z,-2.51
2022-11-20T02:32:40.854Z,-2.37
2022-11-20T02:35:10.036Z,-2.48
2022-11-20T02:37:39.587Z,-2.50
2022-11-20T02:40:08.711Z,-2.36
2022-11-20T02:42:38.218Z,-2.32
2022-11-20T02:45:06.701Z,-2.35
2022-11-20T02:47:34.507Z,-2.40
2022-11-20T02:50:02.321Z,-2.54
2022-11-20T02:52:30.078Z,-2.74
2022-11-20T02:54:57.768Z,-2.68
2022-11-20T02:57:25.498Z,-2.69
2022-11-20T02:59:54.557Z,-2.64
2022-11-20T03:02:22.532Z,-2.63
2022-11-20T03:04:50.217Z,-2.61
2022-11-20T03:07:17.925Z,-2.73
2022-11-20T03:09:45.674Z,-2.76
2022-11-20T03:12:13.399Z,-2.87
2022-11-20T03:14:41.104Z,-2.81
2022-11-20T03:17:10.327Z,-2.92
2022-11-20T03:19:38.036Z,-2.78
2022-11-20T03:22:05.718Z,-2.59
2022-11-20T03:24:33.413Z,-2.69
2022-11-20T03:27:01.176Z,-2.79
2022-11-20T03:29:29.011Z,-2.65
2022-11-20T03:31:56.736Z,-2.67
2022-11-20T03:34:25.952Z,-2.66
2022-11-20T03:36:53.587Z,-2.74
2022-11-20T03:39:21.639Z,-2.60
2022-11-20T03:41:49.544Z,-2.74
2022-11-20T03:44:17.218Z,-3.05
2022-11-20T03:46:44.918Z,-3.02
2022-11-20T03:49:12.598Z,-2.88
2022-11-20T03:51:41.719Z,-2.88
2022-11-20T03:54:10.780Z,-3.09
2022-11-20T03:56:40.517Z,-2.91
2022-11-20T03:59:08.504Z,-2.83
2022-11-20T04:01:37.864Z,-2.83
2022-11-20T04:04:06.029Z,-2.91
2022-11-20T04:06:37.749Z,-2.88
2022-11-20T04:09:07.577Z,-2.84
2022-11-20T04:11:36.657Z,-2.91
2022-11-20T04:14:05.767Z,-2.92
2022-11-20T04:16:36.404Z,-2.94
2022-11-20T04:19:05.764Z,-2.86
2022-11-20T04:21:33.486Z,-2.84
2022-11-20T04:24:01.229Z,-2.99
2022-11-20T04:26:30.975Z,-2.97
2022-11-20T04:28:59.220Z,-3.07
2022-11-20T04:31:28.580Z,-3.18
2022-11-20T04:33:56.811Z,-3.01
2022-11-20T04:36:26.356Z,-3.01
2022-11-20T04:38:56.988Z,-3.05
2022-11-20T04:41:26.485Z,-3.06
2022-11-20T04:44:00.061Z,-3.11
2022-11-20T04:46:29.375Z,-3.25
2022-11-20T04:48:57.235Z,-3.33
2022-11-20T04:51:25.483Z,-3.78
2022-11-20T04:53:53.319Z,-3.45
2022-11-20T04:56:21.045Z,-2.90
2022-11-20T04:58:48.789Z,-2.75
2022-11-20T05:01:20.252Z,-2.83
2022-11-20T05:03:48.095Z,-2.80
2022-11-20T05:06:17.725Z,-2.58
2022-11-20T05:08:45.448Z,-2.64
2022-11-20T05:11:14.912Z,-2.62
2022-11-20T05:13:42.856Z,-2.72
2022-11-20T05:16:12.731Z,-3.18
2022-11-20T05:18:42.500Z,-3.11
2022-11-20T05:21:11.006Z,-2.71
2022-11-20T05:23:39.058Z,-2.70
2022-11-20T05:26:08.056Z,-2.52
2022-11-20T05:28:35.976Z,-2.70
2022-11-20T05:31:07.963Z,-2.96
2022-11-20T05:33:36.065Z,-2.82
2022-11-20T05:36:05.480Z,-2.61
2022-11-20T05:38:33.292Z,-2.78
2022-11-20T05:41:05.940Z,-2.76
2022-11-20T05:43:35.738Z,-2.62
2022-11-20T05:46:03.701Z,-2.37
2022-11-20T05:48:32.426Z,-2.37
2022-11-20T05:51:00.225Z,-2.15
2022-11-20T05:53:29.419Z,-2.82
2022-11-20T05:56:01.176Z,-2.78
2022-11-20T05:58:29.125Z,-2.63
2022-11-20T06:00:57.003Z,-2.50
2022-11-20T06:03:24.759Z,-2.30
2022-11-20T06:05:52.472Z,-2.06
2022-11-20T06:08:20.175Z,-2.04
2022-11-20T06:10:49.207Z,-1.84
2022-11-20T06:13:16.898Z,-1.83
2022-11-20T06:15:44.568Z,-1.69
2022-11-20T06:18:12.199Z,-2.05
2022-11-20T06:20:42.230Z,-2.33
2022-11-20T06:23:10.089Z,-2.03
2022-11-20T06:25:39.605Z,-1.61
2022-11-20T06:28:08.767Z,-1.53
2022-11-20T06:30:36.669Z,-1.23
2022-11-20T06:33:04.483Z,-1.27
2022-11-20T06:35:32.265Z,-1.13
2022-11-20T06:37:59.948Z,-1.03
2022-11-20T06:40:27.625Z,-0.92
2022-11-20T06:42:56.010Z,-1.00
2022-11-20T06:45:25.035Z,-1.18
2022-11-20T06:47:52.651Z,-1.46
2022-11-20T06:50:20.352Z,-2.22
2022-11-20T06:52:48.076Z,-2.35
2022-11-20T06:55:15.812Z,-2.05
2022-11-20T06:57:43.436Z,-1.49
2022-11-20T07:00:12.487Z,-0.98
2022-11-20T07:02:41.561Z,-0.94
2022-11-20T07:05:09.587Z,-0.57
2022-11-20T07:07:37.307Z,-0.56
2022-11-20T07:10:05.796Z,-0.56
2022-11-20T07:12:33.495Z,-1.17
2022-11-20T07:15:01.160Z,-1.13
2022-11-20T07:17:28.799Z,-1.34
2022-11-20T07:19:57.861Z,-1.08
2022-11-20T07:22:25.585Z,-0.99
2022-11-20T07:24:53.250Z,-0.65
2022-11-20T07:27:20.881Z,-0.57
2022-11-20T07:29:48.596Z,-0.51
2022-11-20T07:32:16.289Z,-0.53
2022-11-20T07:34:44.000Z,-0.33
2022-11-20T07:37:13.044Z,-0.20
2022-11-20T07:39:40.763Z,-0.21
2022-11-20T07:42:08.659Z,-0.19
2022-11-20T07:44:36.603Z,-0.37
2022-11-20T07:47:04.420Z,0.06
2022-11-20T07:49:32.418Z,-0.47
2022-11-20T07:52:04.345Z,-0.48
2022-11-20T07:54:34.269Z,-0.24
2022-11-20T07:57:01.924Z,-0.43
2022-11-20T07:59:29.623Z,0.03
2022-11-20T08:01:57.309Z,0.02
2022-11-20T08:04:25.006Z,0.55
2022-11-20T08:06:54.196Z,0.40
2022-11-20T08:09:21.795Z,0.22
2022-11-20T08:12:08.017Z,0.12
2022-11-20T08:14:35.491Z,-0.21
2022-11-20T08:17:02.972Z,0.18
2022-11-20T08:19:30.503Z,0.53
2022-11-20T08:21:58.012Z,0.93
2022-11-20T08:24:25.801Z,0.71
2022-11-20T08:26:54.697Z,0.50
2022-11-20T08:29:22.575Z,0.51
2022-11-20T08:31:50.345Z,0.40
2022-11-20T08:34:19.090Z,0.74
2022-11-20T08:36:47.018Z,0.21
2022-11-20T08:39:14.585Z,0.32
2022-11-20T08:41:42.168Z,0.37
2022-11-20T08:44:11.039Z,0.64
2022-11-20T08:46:39.157Z,0.47
2022-11-20T08:49:07.044Z,0.37
2022-11-20T08:51:34.531Z,0.54
2022-11-20T08:54:02.148Z,1.42
2022-11-20T08:56:29.656Z,1.61
2022-11-20T09:01:46.032Z,2.05
2022-11-20T09:04:15.281Z,1.81
2022-11-20T09:06:43.978Z,1.42
2022-11-20T09:09:11.616Z,1.21
2022-11-20T09:11:39.056Z,1.37
2022-11-20T09:14:06.487Z,2.27
2022-11-20T09:16:34.025Z,2.45
2022-11-20T09:19:40.785Z,2.74
2022-11-20T09:21:50.403Z,2.53
2022-11-20T09:24:17.900Z,1.94
2022-11-20T09:26:45.432Z,2.30
2022-11-20T09:29:12.960Z,2.36
2022-11-20T09:31:40.459Z,2.38
2022-11-20T09:34:09.344Z,2.15
2022-11-20T09:36:36.866Z,2.03
2022-11-20T09:39:04.513Z,2.25
2022-11-20T09:41:38.732Z,2.51
2022-11-20T09:44:07.407Z,2.17
2022-11-20T09:46:36.541Z,2.25
2022-11-20T09:49:13.271Z,2.43
2022-11-20T09:51:41.884Z,2.53
2022-11-20T09:54:12.891Z,2.48
2022-11-20T09:56:41.198Z,2.48
2022-11-20T09:59:08.853Z,2.31
2022-11-20T10:01:37.312Z,2.41
2022-11-20T10:04:05.664Z,2.45
2022-11-20T10:06:35.233Z,2.42
2022-11-20T10:09:05.551Z,2.81
2022-11-20T10:11:35.258Z,2.23
2022-11-20T10:14:04.882Z,2.12
2022-11-20T10:16:39.494Z,2.60
2022-11-20T10:19:12.327Z,2.57
2022-11-20T10:21:43.342Z,2.75
2022-11-20T10:24:24.960Z,2.38
2022-11-20T10:26:54.068Z,2.97
2022-11-20T10:29:21.854Z,3.25
2022-11-20T10:31:50.296Z,3.01
2022-11-20T10:34:23.153Z,3.03
2022-11-20T10:36:53.268Z,3.02
2022-11-20T10:39:22.180Z,3.43
2022-11-20T10:41:51.331Z,3.89
2022-11-20T10:44:39.815Z,4.21
2022-11-20T10:47:07.915Z,4.01
2022-11-20T10:49:35.442Z,4.55
2022-11-20T10:52:07.036Z,4.73
2022-11-20T10:54:35.855Z,4.73
2022-11-20T10:57:04.680Z,4.09
2022-11-20T10:59:38.114Z,4.29
2022-11-20T11:02:16.403Z,4.17
2022-11-20T11:04:45.315Z,4.18
2022-11-20T11:07:15.406Z,4.46
2022-11-20T11:09:43.929Z,4.90
2022-11-20T11:12:11.451Z,5.10
2022-11-20T11:14:46.137Z,5.48
2022-11-20T11:17:23.833Z,6.05
2022-11-20T11:20:07.895Z,6.10
2022-11-20T11:22:37.105Z,6.10
2022-11-20T11:25:04.788Z,6.74
2022-11-20T11:27:32.322Z,6.15
2022-11-20T11:30:14.387Z,6.30
2022-11-20T11:32:42.074Z,6.23
2022-11-20T11:35:20.883Z,6.79
2022-11-20T11:37:49.924Z,5.82
2022-11-20T11:40:25.378Z,6.19
2022-11-20T11:42:54.864Z,6.27
2022-11-20T11:45:21.421Z,6.52
2022-11-20T11:47:49.283Z,6.23
2022-11-20T11:50:18.255Z,5.97
2022-11-20T11:52:46.481Z,5.71
2022-11-20T11:55:16.708Z,5.85
2022-11-20T11:57:46.424Z,5.93
2022-11-20T12:00:14.844Z,6.22
2022-11-20T12:02:48.789Z,5.69
2022-11-20T12:05:18.812Z,5.92
2022-11-20T12:07:48.039Z,5.99
2022-11-20T12:10:24.502Z,6.26
2022-11-20T12:12:54.211Z,6.02
2022-11-20T12:15:31.901Z,6.41
2022-11-20T12:17:59.611Z,6.18
2022-11-20T12:20:28.360Z,5.59
2022-11-20T12:22:57.774Z,5.86
2022-11-20T12:25:27.145Z,5.95
2022-11-20T12:28:09.528Z,6.04
2022-11-20T12:30:38.253Z,5.76
2022-11-20T12:33:19.129Z,5.77
2022-11-20T12:35:49.945Z,5.55
2022-11-20T12:38:32.318Z,5.14
2022-11-20T12:41:02.343Z,5.23
2022-11-20T12:43:47.292Z,4.90
2022-11-20T12:46:18.103Z,4.92
2022-11-20T12:49:04.776Z,5.58
2022-11-20T12:51:54.092Z,5.60
2022-11-20T12:54:34.346Z,6.05
2022-11-20T12:57:05.390Z,5.88
2022-11-20T12:59:36.185Z,5.91
2022-11-20T13:02:05.315Z,6.14
2022-11-20T13:04:36.343Z,6.09
2022-11-20T13:07:05.086Z,5.97
2022-11-20T13:09:32.628Z,5.92
2022-11-20T13:12:02.616Z,6.03
2022-11-20T13:14:33.848Z,6.09
2022-11-20T13:17:06.051Z,5.94
2022-11-20T13:19:33.962Z,6.16
2022-11-20T13:22:01.475Z,6.29
2022-11-20T13:24:31.097Z,6.14
2022-11-20T13:27:02.593Z,5.97
2022-11-20T13:29:30.741Z,6.39
2022-11-20T13:32:07.958Z,5.42
2022-11-20T13:34:36.352Z,5.63
2022-11-20T13:37:04.860Z,5.82
2022-11-20T13:39:32.876Z,5.25
2022-11-20T13:42:01.272Z,4.86
2022-11-20T13:44:31.157Z,5.48
2022-11-20T13:46:58.678Z,5.72
2022-11-20T13:49:29.350Z,4.90
2022-11-20T13:51:59.779Z,5.39
2022-11-20T13:54:36.304Z,5.48
2022-11-20T13:57:06.593Z,5.48
2022-11-20T13:59:38.306Z,5.46
2022-11-20T14:02:07.761Z,5.42
2022-11-20T14:04:38.647Z,5.51
2022-11-20T14:07:07.635Z,5.47
2022-11-20T14:09:36.062Z,5.56
2022-11-20T14:12:04.060Z,5.34
2022-11-20T14:14:31.909Z,5.32
2022-11-20T14:17:07.246Z,5.27
2022-11-20T14:19:38.118Z,5.30
2022-11-20T14:22:09.811Z,5.23
2022-11-20T14:24:37.340Z,5.14
2022-11-20T14:27:04.890Z,5.44
2022-11-20T14:29:35.300Z,5.38
2022-11-20T14:32:02.793Z,5.44
2022-11-20T14:34:32.436Z,5.32
2022-11-20T14:37:01.941Z,5.18
2022-11-20T14:39:31.062Z,5.30
2022-11-20T14:41:58.534Z,5.12
2022-11-20T14:44:27.801Z,5.32
2022-11-20T14:46:55.332Z,5.14
2022-11-20T14:49:22.818Z,4.83
2022-11-20T14:51:59.987Z,4.96
2022-11-20T14:54:30.074Z,5.02
2022-11-20T14:56:57.961Z,5.01
2022-11-20T14:59:25.856Z,5.04
2022-11-20T15:01:57.091Z,5.07
2022-11-20T15:04:24.801Z,4.90
2022-11-20T15:06:52.943Z,4.76
2022-11-20T15:09:20.469Z,4.40
2022-11-20T15:11:55.048Z,4.74
2022-11-20T15:14:22.967Z,4.85
2022-11-20T15:16:50.676Z,4.92
2022-11-20T15:19:19.444Z,4.97
2022-11-20T15:21:46.877Z,4.53
2022-11-20T15:24:14.350Z,4.85
2022-11-20T15:26:42.019Z,5.02
2022-11-20T15:29:11.735Z,4.78
2022-11-20T15:31:42.305Z,4.26
2022-11-20T15:34:11.058Z,4.56
2022-11-20T15:36:38.573Z,4.79
2022-11-20T15:39:08.096Z,4.78
2022-11-20T15:41:35.748Z,4.47
2022-11-20T15:44:03.319Z,4.62
2022-11-20T15:46:33.799Z,4.80
2022-11-20T15:49:01.668Z,4.66
2022-11-20T15:51:29.746Z,4.62
2022-11-20T15:53:57.536Z,4.20
2022-11-20T15:56:25.236Z,4.28
2022-11-20T15:58:52.737Z,4.05
2022-11-20T16:01:20.755Z,4.34
2022-11-20T16:03:49.652Z,4.86
2022-11-20T16:06:17.226Z,4.94
2022-11-20T16:08:44.670Z,5.05
2022-11-20T16:11:12.720Z,4.88
2022-11-20T16:13:57.570Z,4.89
2022-11-20T16:16:26.195Z,4.90
2022-11-20T16:18:55.061Z,4.63
2022-11-20T16:21:28.182Z,4.21
2022-11-20T16:23:55.748Z,4.79
2022-11-20T16:26:23.251Z,4.60
2022-11-20T16:28:50.760Z,4.71
2022-11-20T16:31:18.864Z,4.67
2022-11-20T16:33:50.844Z,4.78
2022-11-20T16:36:19.980Z,4.75
2022-11-20T16:38:47.506Z,4.59
2022-11-20T16:41:15.316Z,4.27
2022-11-20T16:43:47.261Z,4.60
2022-11-20T16:46:14.941Z,4.65
2022-11-20T16:48:42.400Z,4.50
2022-11-20T16:51:10.331Z,4.54
2022-11-20T16:53:39.281Z,4.32
2022-11-20T16:56:10.279Z,4.27
2022-11-20T16:58:37.719Z,4.05
2022-11-20T17:01:10.664Z,4.05
2022-11-20T17:03:39.016Z,3.99
2022-11-20T17:06:12.993Z,4.08
2022-11-20T17:08:41.891Z,4.18
2022-11-20T17:11:09.635Z,4.14
2022-11-20T17:13:39.774Z,4.02
2022-11-20T17:16:08.227Z,3.87
2022-11-20T17:18:35.816Z,3.98
2022-11-20T17:21:05.243Z,3.74
2022-11-20T17:23:32.744Z,3.90
2022-11-20T17:26:05.742Z,3.77
2022-11-20T17:28:33.487Z,3.92
2022-11-20T17:31:01.750Z,3.75
2022-11-20T17:33:29.306Z,3.81
2022-11-20T17:35:57.032Z,4.12
2022-11-20T17:38:24.721Z,3.99
2022-11-20T17:40:52.184Z,4.10
2022-11-20T17:43:21.031Z,3.90
2022-11-20T17:45:48.525Z,3.92
2022-11-20T17:48:16.050Z,3.66
2022-11-20T17:50:43.572Z,3.38
2022-11-20T17:53:11.042Z,3.96
2022-11-20T17:55:56.191Z,3.72
2022-11-20T17:58:25.046Z,4.03
2022-11-20T18:00:52.516Z,3.55
2022-11-20T18:03:19.955Z,3.71
2022-11-20T18:05:47.423Z,3.94
2022-11-20T18:08:14.951Z,3.64
2022-11-20T18:10:42.492Z,3.69
2022-11-20T18:13:09.955Z,3.87
2022-11-20T18:15:38.751Z,3.81
2022-11-20T18:18:06.375Z,3.74
2022-11-20T18:20:38.358Z,3.81
2022-11-20T18:23:07.436Z,3.64
2022-11-20T18:25:35.001Z,3.47
2022-11-20T18:28:02.476Z,3.22
2022-11-20T18:30:29.962Z,3.21
2022-11-20T18:32:58.819Z,3.17
2022-11-20T18:35:27.689Z,3.30
2022-11-20T18:37:55.142Z,2.76
2022-11-20T18:40:22.740Z,3.36
2022-11-20T18:43:07.759Z,3.36
2022-11-20T18:45:35.203Z,2.88
2022-11-20T18:48:04.189Z,3.12
2022-11-20T18:50:31.681Z,3.29
2022-11-20T18:52:59.187Z,3.37
2022-11-20T18:55:26.669Z,3.15
2022-11-20T18:57:55.115Z,3.33
2022-11-20T19:00:22.685Z,3.48
2022-11-20T19:02:50.122Z,3.19
2022-11-20T19:05:18.995Z,3.18
2022-11-20T19:07:46.536Z,2.89
2022-11-20T19:10:14.236Z,3.02
2022-11-20T19:12:41.704Z,3.04
2022-11-20T19:15:09.415Z,2.69
2022-11-20T19:17:37.725Z,2.76
2022-11-20T19:20:05.564Z,2.80
2022-11-20T19:22:34.403Z,2.82
2022-11-20T19:25:01.916Z,2.73
2022-11-20T19:27:29.421Z,2.79
2022-11-20T19:30:02.984Z,2.85
2022-11-20T19:32:30.926Z,2.87
2022-11-20T19:34:58.398Z,2.80
2022-11-20T19:37:26.068Z,3.01
2022-11-20T19:39:56.654Z,3.06
2022-11-20T19:42:24.148Z,2.94
2022-11-20T19:44:51.597Z,3.06
2022-11-20T19:47:19.094Z,3.07
2022-11-20T19:49:46.629Z,3.10
2022-11-20T19:52:14.105Z,3.11
2022-11-20T19:54:41.591Z,2.99
2022-11-20T19:57:10.549Z,2.96
2022-11-20T19:59:38.233Z,2.92
2022-11-20T20:02:05.793Z,3.12
2022-11-20T20:04:33.335Z,2.76
2022-11-20T20:07:03.764Z,3.10
2022-11-20T20:09:31.275Z,3.37
2022-11-20T20:11:58.805Z,3.54
2022-11-20T20:14:27.639Z,2.93
2022-11-20T20:16:55.176Z,2.87
2022-11-20T20:19:23.080Z,3.02
2022-11-20T20:21:50.987Z,2.65
2022-11-20T20:24:18.547Z,2.70
2022-11-20T20:26:46.086Z,3.11
2022-11-20T20:29:13.535Z,3.12
2022-11-20T20:31:42.350Z,2.79
2022-11-20T20:34:09.892Z,3.03
2022-11-20T20:36:37.436Z,2.90
2022-11-20T20:39:04.948Z,2.72
2022-11-20T20:41:32.469Z,2.90
2022-11-20T20:44:32.020Z,2.79
2022-11-20T20:47:01.200Z,2.97
2022-11-20T20:49:28.676Z,3.03
2022-11-20T20:51:56.217Z,2.48
2022-11-20T20:54:23.732Z,2.75
2022-11-20T20:56:51.843Z,2.81
2022-11-20T20:59:19.345Z,2.71
2022-11-20T21:01:46.873Z,2.42
2022-11-20T21:04:16.121Z,2.74
2022-11-20T21:06:43.561Z,2.57
2022-11-20T21:09:11.127Z,2.18
2022-11-20T21:11:39.695Z,2.87
2022-11-20T21:14:07.197Z,2.50
2022-11-20T21:16:41.185Z,2.70
2022-11-20T21:19:08.791Z,2.68
2022-11-20T21:21:55.206Z,2.13
2022-11-20T21:24:23.090Z,2.29
2022-11-20T21:26:52.186Z,2.75
2022-11-20T21:29:19.823Z,2.69
2022-11-20T21:31:47.474Z,2.71
2022-11-20T21:34:15.353Z,2.32
2022-11-20T21:36:44.915Z,2.06
2022-11-20T21:39:12.599Z,2.22
2022-11-20T21:41:40.334Z,2.59
2022-11-20T21:46:55.795Z,2.39
2022-11-20T21:49:23.526Z,2.29
2022-11-20T21:51:53.668Z,2.22
2022-11-20T21:54:21.404Z,2.28
2022-11-20T21:56:49.041Z,1.89
2022-11-20T21:59:16.540Z,2.41
2022-11-20T22:01:44.073Z,2.07
2022-11-20T22:04:13.362Z,1.82
2022-11-20T22:06:40.806Z,2.25
2022-11-20T22:09:10.837Z,2.09
2022-11-20T22:11:38.409Z,2.23
2022-11-20T22:14:24.851Z,1.92
2022-11-20T22:16:53.136Z,2.43
2022-11-20T22:19:21.417Z,2.63
2022-11-20T22:21:49.270Z,2.74
2022-11-20T22:24:19.290Z,2.67
2022-11-20T22:26:47.629Z,2.31
2022-11-20T22:29:15.339Z,2.57
2022-11-20T22:31:42.851Z,2.89
2022-11-20T22:34:11.213Z,2.90
2022-11-20T22:36:38.751Z,3.00
2022-11-20T22:39:06.290Z,3.13
2022-11-20T22:41:35.155Z,3.20
2022-11-20T22:44:03.071Z,2.82
2022-11-20T22:46:31.948Z,2.79
2022-11-20T22:48:59.956Z,3.23
2022-11-20T22:51:27.878Z,2.93
2022-11-20T22:53:55.407Z,3.28
2022-11-20T22:56:23.043Z,2.99
2022-11-20T22:58:52.365Z,3.53
2022-11-20T23:01:20.565Z,3.22
2022-11-20T23:03:48.697Z,3.32
2022-11-20T23:06:16.935Z,3.10
2022-11-20T23:08:44.431Z,2.92
2022-11-20T23:11:12.556Z,3.10
2022-11-20T23:13:40.253Z,2.60
2022-11-20T23:16:09.603Z,2.28
2022-11-20T23:18:37.104Z,2.83
2022-11-20T23:21:05.255Z,2.74
2022-11-20T23:23:32.873Z,2.87
2022-11-20T23:26:03.462Z,2.61
2022-11-20T23:28:32.031Z,2.38
2022-11-20T23:30:59.495Z,2.42
2022-11-20T23:33:28.434Z,2.70
2022-11-20T23:35:55.948Z,2.41
2022-11-20T23:38:23.476Z,2.42
2022-11-20T23:40:51.501Z,2.25
2022-11-20T23:43:19.512Z,2.01
2022-11-20T23:45:48.310Z,2.23
2022-11-20T23:48:15.969Z,2.48
2022-11-20T23:50:45.023Z,2.58
2022-11-20T23:53:12.783Z,2.65
2022-11-20T23:55:40.251Z,2.76
2022-11-20T23:58:07.720Z,3.02
